TimeMST,TemperatureF,Dew PointF,Humidity,Sea Level PressureIn,VisibilityMPH,Wind Direction,Wind SpeedMPH,Gust SpeedMPH,PrecipitationIn,Events,Conditions,WindDirDegrees,DateUTC
12:53 AM,12.0,1.9,64,29.95,10.0,SW,4.6,-,N/A,,Clear,220,2012-12-19 07:53:00
1:53 AM,15.1,-0.0,51,29.95,10.0,Calm,Calm,-,N/A,,Clear,0,2012-12-19 08:53:00
2:53 AM,14.0,1.0,56,29.96,10.0,West,10.4,-,N/A,,Clear,280,2012-12-19 09:53:00
3:53 AM,14.0,1.9,59,29.99,10.0,West,6.9,-,N/A,,Clear,280,2012-12-19 10:53:00
4:53 AM,10.9,-0.9,59,30.04,10.0,NNW,6.9,-,N/A,,Clear,340,2012-12-19 11:53:00
5:53 AM,10.0,-0.9,61,30.06,10.0,ENE,5.8,-,N/A,,Clear,70,2012-12-19 12:53:00
6:53 AM,10.0,-0.9,61,30.09,10.0,ESE,5.8,-,N/A,,Clear,110,2012-12-19 13:53:00
7:53 AM,7.0,-0.9,70,30.12,10.0,Calm,Calm,-,N/A,,Clear,0,2012-12-19 14:53:00
8:53 AM,16.0,3.0,57,30.13,10.0,Calm,Calm,-,N/A,,Clear,0,2012-12-19 15:53:00
9:53 AM,21.9,3.0,44,30.12,10.0,Calm,Calm,-,N/A,,Clear,0,2012-12-19 16:53:00
10:53 AM,25.0,3.0,39,30.13,10.0,North,3.5,-,N/A,,Clear,360,2012-12-19 17:53:00
11:53 AM,28.0,5.0,38,30.11,10.0,North,11.5,-,N/A,,Clear,350,2012-12-19 18:53:00
12:53 PM,28.9,5.0,36,30.12,10.0,NW,19.6,-,N/A,,Clear,320,2012-12-19 19:53:00
1:53 PM,28.9,3.9,35,30.11,10.0,NW,21.9,-,N/A,,Clear,320,2012-12-19 20:53:00
2:53 PM,27.0,3.9,37,30.14,10.0,NNW,10.4,-,N/A,,Clear,340,2012-12-19 21:53:00
3:53 PM,25.0,5.0,43,30.15,10.0,NNW,9.2,-,N/A,,Clear,330,2012-12-19 22:53:00
4:53 PM,15.1,3.0,59,30.21,10.0,SW,6.9,-,N/A,,Clear,230,2012-12-19 23:53:00
5:53 PM,17.1,3.0,54,30.22,10.0,South,4.6,-,N/A,,Clear,170,2012-12-20 00:53:00
6:53 PM,18.0,-0.0,45,30.22,10.0,Calm,Calm,-,N/A,,Clear,0,2012-12-20 01:53:00
7:53 PM,15.1,-0.9,49,30.25,10.0,South,3.5,-,N/A,,Clear,190,2012-12-20 02:53:00
8:53 PM,10.0,-0.9,61,30.23,10.0,SSW,6.9,-,N/A,,Clear,200,2012-12-20 03:53:00
9:53 PM,12.9,-2.0,51,30.19,10.0,South,4.6,-,N/A,,Clear,170,2012-12-20 04:53:00
10:53 PM,10.0,-2.0,58,30.19,10.0,South,4.6,-,N/A,,Clear,170,2012-12-20 05:53:00
11:53 PM,9.0,-0.9,64,30.18,10.0,Calm,Calm,-,N/A,,Clear,0,2012-12-20 06:53:00